sensor_id;sensor_type;location;lat;lon;timestamp;pressure;altitude;pressure_sealevel;temperature;humidity
51081;BME280;37130;55.670;37.596;2023-02-11T00:01:27;99449.22;;;-2.37;75.84
51081;BME280;37130;55.670;37.596;2023-02-11T00:03:56;99431.94;;;-2.42;76.06
51081;BME280;37130;55.670;37.596;2023-02-11T00:06:25;99412.91;;;-2.56;75.68
51081;BME280;37130;55.670;37.596;2023-02-11T00:08:54;99434.50;;;-2.51;75.66
51081;BME280;37130;55.670;37.596;2023-02-11T00:11:23;99438.00;;;-2.46;75.46
51081;BME280;37130;55.670;37.596;2023-02-11T00:13:59;99431.91;;;-2.54;76.12
51081;BME280;37130;55.670;37.596;2023-02-11T00:16:28;99444.00;;;-2.53;76.42
51081;BME280;37130;55.670;37.596;2023-02-11T00:19:00;99440.53;;;-2.58;76.33
51081;BME280;37130;55.670;37.596;2023-02-11T00:21:29;99447.44;;;-2.60;76.20
51081;BME280;37130;55.670;37.596;2023-02-11T00:23:57;99447.44;;;-2.63;76.58
51081;BME280;37130;55.670;37.596;2023-02-11T00:26:29;99431.84;;;-2.78;76.47
51081;BME280;37130;55.670;37.596;2023-02-11T00:28:58;99443.06;;;-2.78;76.11
51081;BME280;37130;55.670;37.596;2023-02-11T00:31:27;99447.38;;;-2.84;76.38
51081;BME280;37130;55.670;37.596;2023-02-11T00:33:55;99347.78;;;-3.56;76.78
51081;BME280;37130;55.670;37.596;2023-02-11T00:36:25;99451.66;;;-2.91;76.60
51081;BME280;37130;55.670;37.596;2023-02-11T00:38:54;99409.25;;;-3.16;76.88
51081;BME280;37130;55.670;37.596;2023-02-11T00:41:22;99470.66;;;-2.95;76.48
51081;BME280;37130;55.670;37.596;2023-02-11T00:43:50;99442.09;;;-3.04;76.88
51081;BME280;37130;55.670;37.596;2023-02-11T00:46:19;99423.88;;;-3.24;77.15
51081;BME280;37130;55.670;37.596;2023-02-11T00:48:47;99450.72;;;-3.12;76.85
51081;BME280;37130;55.670;37.596;2023-02-11T00:51:15;99460.16;;;-3.18;77.24
51081;BME280;37130;55.670;37.596;2023-02-11T00:53:42;99462.72;;;-3.20;77.23
51081;BME280;37130;55.670;37.596;2023-02-11T00:56:09;99457.50;;;-3.29;77.30
51081;BME280;37130;55.670;37.596;2023-02-11T00:58:37;99448.00;;;-3.32;77.34
51081;BME280;37130;55.670;37.596;2023-02-11T01:01:05;99429.81;;;-3.45;77.58
51081;BME280;37130;55.670;37.596;2023-02-11T01:03:33;99464.41;;;-3.29;78.01
51081;BME280;37130;55.670;37.596;2023-02-11T01:06:01;99459.16;;;-3.39;77.66
51081;BME280;37130;55.670;37.596;2023-02-11T01:08:28;99434.09;;;-3.47;78.07
51081;BME280;37130;55.670;37.596;2023-02-11T01:10:58;99463.56;;;-3.30;77.69
51081;BME280;37130;55.670;37.596;2023-02-11T01:13:27;99452.25;;;-3.43;77.90
51081;BME280;37130;55.670;37.596;2023-02-11T01:15:55;99473.00;;;-3.34;77.97
51081;BME280;37130;55.670;37.596;2023-02-11T01:18:24;99483.38;;;-3.35;77.58
51081;BME280;37130;55.670;37.596;2023-02-11T01:20:52;99477.31;;;-3.37;77.85
51081;BME280;37130;55.670;37.596;2023-02-11T01:23:20;99472.06;;;-3.43;78.01
51081;BME280;37130;55.670;37.596;2023-02-11T01:25:48;99480.72;;;-3.41;77.53
51081;BME280;37130;55.670;37.596;2023-02-11T01:28:18;99451.34;;;-3.49;77.63
51081;BME280;37130;55.670;37.596;2023-02-11T01:30:46;99400.16;;;-3.90;77.60
51081;BME280;37130;55.670;37.596;2023-02-11T01:33:14;99487.66;;;-3.39;77.71
51081;BME280;37130;55.670;37.596;2023-02-11T01:35:43;99489.38;;;-3.42;78.10
51081;BME280;37130;55.670;37.596;2023-02-11T01:38:28;99487.59;;;-3.48;77.58
51081;BME280;37130;55.670;37.596;2023-02-11T01:41:04;99396.59;;;-4.06;77.82
51081;BME280;37130;55.670;37.596;2023-02-11T01:43:41;99492.72;;;-3.54;78.47
51081;BME280;37130;55.670;37.596;2023-02-11T01:46:19;99429.50;;;-3.90;77.65
51081;BME280;37130;55.670;37.596;2023-02-11T01:48:57;99489.28;;;-3.56;78.24
51081;BME280;37130;55.670;37.596;2023-02-11T01:54:20;99445.09;;;-3.81;77.94
51081;BME280;37130;55.670;37.596;2023-02-11T01:57:09;99490.97;;;-3.57;78.44
51081;BME280;37130;55.670;37.596;2023-02-11T02:00:10;99485.78;;;-3.61;77.74
51081;BME280;37130;55.670;37.596;2023-02-11T02:05:19;99486.72;;;-3.48;78.20
51081;BME280;37130;55.670;37.596;2023-02-11T02:08:02;99488.53;;;-3.37;77.81
51081;BME280;37130;55.670;37.596;2023-02-11T02:10:34;99475.66;;;-3.23;78.05
51081;BME280;37130;55.670;37.596;2023-02-11T02:13:03;99471.38;;;-3.21;77.25
51081;BME280;37130;55.670;37.596;2023-02-11T02:15:35;99482.72;;;-2.97;76.89
51081;BME280;37130;55.670;37.596;2023-02-11T02:18:17;99478.44;;;-2.91;76.82
51081;BME280;37130;55.670;37.596;2023-02-11T02:40:24;99456.97;;;-2.47;75.11
51081;BME280;37130;55.670;37.596;2023-02-11T02:42:53;99485.59;;;-2.19;75.75
51081;BME280;37130;55.670;37.596;2023-02-11T02:45:21;99488.19;;;-2.19;75.52
51081;BME280;37130;55.670;37.596;2023-02-11T02:47:48;99392.97;;;-2.78;75.54
51081;BME280;37130;55.670;37.596;2023-02-11T02:50:20;99488.16;;;-2.21;74.85
51081;BME280;37130;55.670;37.596;2023-02-11T02:52:58;99484.72;;;-2.21;75.27
51081;BME280;37130;55.670;37.596;2023-02-11T02:56:03;99489.84;;;-2.46;76.25
51081;BME280;37130;55.670;37.596;2023-02-11T02:58:48;99488.97;;;-2.38;75.45
51081;BME280;37130;55.670;37.596;2023-02-11T03:07:40;99482.94;;;-2.39;75.20
51081;BME280;37130;55.670;37.596;2023-02-11T03:10:18;99476.88;;;-2.39;74.35
51081;BME280;37130;55.670;37.596;2023-02-11T03:12:48;99479.47;;;-2.43;74.99
51081;BME280;37130;55.670;37.596;2023-02-11T03:15:19;99398.97;;;-2.98;74.30
51081;BME280;37130;55.670;37.596;2023-02-11T03:17:58;99457.81;;;-2.58;74.46
51081;BME280;37130;55.670;37.596;2023-02-11T03:20:29;99482.00;;;-2.58;74.63
51081;BME280;37130;55.670;37.596;2023-02-11T03:25:43;99481.16;;;-2.55;75.09
51081;BME280;37130;55.670;37.596;2023-02-11T03:31:16;99372.03;;;-3.37;74.25
51081;BME280;37130;55.670;37.596;2023-02-11T03:37:00;99472.44;;;-2.76;74.99
51081;BME280;37130;55.670;37.596;2023-02-11T03:39:40;99479.34;;;-2.82;74.45
51081;BME280;37130;55.670;37.596;2023-02-11T03:42:13;99459.44;;;-2.90;74.23
51081;BME280;37130;55.670;37.596;2023-02-11T03:44:50;99457.66;;;-3.03;75.00
51081;BME280;37130;55.670;37.596;2023-02-11T03:47:23;99467.09;;;-3.14;75.17
51081;BME280;37130;55.670;37.596;2023-02-11T03:49:54;99462.75;;;-3.21;75.35
51081;BME280;37130;55.670;37.596;2023-02-11T03:52:24;99465.31;;;-3.27;75.35
51081;BME280;37130;55.670;37.596;2023-02-11T03:54:55;99460.09;;;-3.32;75.55
51081;BME280;37130;55.670;37.596;2023-02-11T03:57:24;99466.13;;;-3.32;75.48
51081;BME280;37130;55.670;37.596;2023-02-11T03:59:56;99453.97;;;-3.42;75.68
51081;BME280;37130;55.670;37.596;2023-02-11T04:02:26;99453.97;;;-3.45;75.91
51081;BME280;37130;55.670;37.596;2023-02-11T04:04:55;99458.25;;;-3.47;75.60
51081;BME280;37130;55.670;37.596;2023-02-11T04:07:23;99342.19;;;-4.20;75.27
51081;BME280;37130;55.670;37.596;2023-02-11T04:09:50;99394.06;;;-4.00;75.68
51081;BME280;37130;55.670;37.596;2023-02-11T04:12:18;99457.34;;;-3.58;76.37
51081;BME280;37130;55.670;37.596;2023-02-11T04:14:46;99415.78;;;-3.78;76.21
51081;BME280;37130;55.670;37.596;2023-02-11T04:17:14;99447.81;;;-3.64;76.33
51081;BME280;37130;55.670;37.596;2023-02-11T04:19:41;99464.19;;;-3.66;76.17
51081;BME280;37130;55.670;37.596;2023-02-11T04:22:09;99459.00;;;-3.66;76.15
51081;BME280;37130;55.670;37.596;2023-02-11T04:24:36;99351.59;;;-4.31;76.13
51081;BME280;37130;55.670;37.596;2023-02-11T04:27:04;99445.09;;;-3.78;76.33
51081;BME280;37130;55.670;37.596;2023-02-11T04:29:31;99452.03;;;-3.77;76.46
51081;BME280;37130;55.670;37.596;2023-02-11T04:31:59;99444.19;;;-3.83;76.46
51081;BME280;37130;55.670;37.596;2023-02-11T04:34:27;99310.84;;;-4.62;76.55
51081;BME280;37130;55.670;37.596;2023-02-11T04:36:54;99459.72;;;-3.84;76.43
51081;BME280;37130;55.670;37.596;2023-02-11T04:39:22;99416.44;;;-4.05;75.99
51081;BME280;37130;55.670;37.596;2023-02-11T04:41:49;99434.59;;;-3.99;76.45
51081;BME280;37130;55.670;37.596;2023-02-11T04:44:17;99423.34;;;-4.04;76.75
51081;BME280;37130;55.670;37.596;2023-02-11T04:46:44;99450.19;;;-3.91;76.46
51081;BME280;37130;55.670;37.596;2023-02-11T04:49:14;99343.59;;;-4.60;76.61
51081;BME280;37130;55.670;37.596;2023-02-11T04:51:42;99334.94;;;-4.64;76.58
51081;BME280;37130;55.670;37.596;2023-02-11T04:54:17;99453.59;;;-3.97;76.72
51081;BME280;37130;55.670;37.596;2023-02-11T04:56:46;99457.88;;;-3.99;76.80
51081;BME280;37130;55.670;37.596;2023-02-11T04:59:15;99425.81;;;-4.18;76.91
51081;BME280;37130;55.670;37.596;2023-02-11T05:01:45;99455.31;;;-3.96;76.80
51081;BME280;37130;55.670;37.596;2023-02-11T05:04:13;99441.44;;;-4.04;76.69
51081;BME280;37130;55.670;37.596;2023-02-11T05:06:40;99457.81;;;-4.04;76.68
51081;BME280;37130;55.670;37.596;2023-02-11T05:09:10;99356.59;;;-4.51;76.68
51081;BME280;37130;55.670;37.596;2023-02-11T05:11:38;99452.78;;;-3.90;76.25
51081;BME280;37130;55.670;37.596;2023-02-11T05:14:06;99347.22;;;-4.38;76.84
51081;BME280;37130;55.670;37.596;2023-02-11T05:16:33;99420.84;;;-3.95;76.51
51081;BME280;37130;55.670;37.596;2023-02-11T05:19:01;99446.03;;;-3.71;76.34
51081;BME280;37130;55.670;37.596;2023-02-11T05:21:29;99458.16;;;-3.64;76.52
51081;BME280;37130;55.670;37.596;2023-02-11T05:23:57;99445.28;;;-3.52;75.92
51081;BME280;37130;55.670;37.596;2023-02-11T05:26:25;99442.75;;;-3.41;76.30
51081;BME280;37130;55.670;37.596;2023-02-11T05:28:52;99409.91;;;-3.53;75.90
51081;BME280;37130;55.670;37.596;2023-02-11T05:31:20;99458.44;;;-3.15;75.85
51081;BME280;37130;55.670;37.596;2023-02-11T05:33:47;99443.81;;;-3.05;75.57
51081;BME280;37130;55.670;37.596;2023-02-11T05:36:15;99448.22;;;-2.90;75.48
51081;BME280;37130;55.670;37.596;2023-02-11T05:38:42;99447.38;;;-2.78;74.80
51081;BME280;37130;55.670;37.596;2023-02-11T05:41:10;99446.53;;;-2.79;75.03
51081;BME280;37130;55.670;37.596;2023-02-11T05:43:38;99424.94;;;-2.79;75.59
51081;BME280;37130;55.670;37.596;2023-02-11T05:46:06;99342.72;;;-3.26;75.07
51081;BME280;37130;55.670;37.596;2023-02-11T05:48:33;99450.06;;;-2.54;75.33
51081;BME280;37130;55.670;37.596;2023-02-11T05:51:01;99422.38;;;-2.64;74.56
51081;BME280;37130;55.670;37.596;2023-02-11T05:53:28;99441.41;;;-2.47;74.93
51081;BME280;37130;55.670;37.596;2023-02-11T05:55:56;99449.22;;;-2.36;75.19
51081;BME280;37130;55.670;37.596;2023-02-11T05:58:23;99418.97;;;-2.48;74.28
51081;BME280;37130;55.670;37.596;2023-02-11T06:00:51;99450.97;;;-2.27;74.83
51081;BME280;37130;55.670;37.596;2023-02-11T06:03:18;99444.03;;;-2.28;74.29
51081;BME280;37130;55.670;37.596;2023-02-11T06:05:48;99350.63;;;-2.83;73.96
51081;BME280;37130;55.670;37.596;2023-02-11T06:08:16;99444.09;;;-2.14;74.84
51081;BME280;37130;55.670;37.596;2023-02-11T06:10:44;99254.66;;;-3.40;73.82
51081;BME280;37130;55.670;37.596;2023-02-11T06:13:12;99444.94;;;-2.17;73.89
51081;BME280;37130;55.670;37.596;2023-02-11T06:15:39;99260.75;;;-3.27;73.51
51081;BME280;37130;55.670;37.596;2023-02-11T06:18:07;99457.03;;;-2.13;73.82
51081;BME280;37130;55.670;37.596;2023-02-11T06:20:35;99436.28;;;-2.19;74.39
51081;BME280;37130;55.670;37.596;2023-02-11T06:23:03;99447.53;;;-2.12;73.88
51081;BME280;37130;55.670;37.596;2023-02-11T06:25:30;99412.06;;;-2.29;73.76
51081;BME280;37130;55.670;37.596;2023-02-11T06:27:58;99431.13;;;-2.14;73.86
51081;BME280;37130;55.670;37.596;2023-02-11T06:30:25;99431.97;;;-2.14;73.66
51081;BME280;37130;55.670;37.596;2023-02-11T06:32:53;99442.38;;;-1.95;73.24
51081;BME280;37130;55.670;37.596;2023-02-11T06:35:20;99432.00;;;-1.99;73.78
51081;BME280;37130;55.670;37.596;2023-02-11T06:37:48;99429.38;;;-1.97;73.16
51081;BME280;37130;55.670;37.596;2023-02-11T06:40:18;99443.22;;;-1.92;73.28
51081;BME280;37130;55.670;37.596;2023-02-11T06:42:46;99441.50;;;-1.85;73.48
51081;BME280;37130;55.670;37.596;2023-02-11T06:45:13;99431.97;;;-1.79;73.41
51081;BME280;37130;55.670;37.596;2023-02-11T06:47:41;99416.41;;;-1.80;73.25
51081;BME280;37130;55.670;37.596;2023-02-11T06:50:12;99323.03;;;-2.34;72.48
51081;BME280;37130;55.670;37.596;2023-02-11T06:52:40;99440.63;;;-1.66;72.58
51081;BME280;37130;55.670;37.596;2023-02-11T06:55:08;99405.19;;;-1.81;72.62
51081;BME280;37130;55.670;37.596;2023-02-11T06:57:35;99431.03;;;-1.22;72.82
51081;BME280;37130;55.670;37.596;2023-02-11T07:00:03;99317.72;;;-0.15;71.22
51081;BME280;37130;55.670;37.596;2023-02-11T07:02:32;99407.38;;;2.39;69.41
51081;BME280;37130;55.670;37.596;2023-02-11T07:04:59;99424.53;;;3.83;67.17
51081;BME280;37130;55.670;37.596;2023-02-11T07:07:28;99430.25;;;4.69;65.84
51081;BME280;37130;55.670;37.596;2023-02-11T07:10:00;99421.50;;;4.70;65.81
51081;BME280;37130;55.670;37.596;2023-02-11T07:12:30;99425.22;;;5.25;64.61
51081;BME280;37130;55.670;37.596;2023-02-11T07:14:57;99431.66;;;4.13;64.20
51081;BME280;37130;55.670;37.596;2023-02-11T07:17:25;99439.34;;;3.01;65.50
51081;BME280;37130;55.670;37.596;2023-02-11T07:19:53;99440.66;;;2.77;66.44
51081;BME280;37130;55.670;37.596;2023-02-11T07:22:21;99434.63;;;2.74;66.78
51081;BME280;37130;55.670;37.596;2023-02-11T07:24:48;99344.22;;;2.15;65.51
51081;BME280;37130;55.670;37.596;2023-02-11T07:27:16;99434.88;;;2.10;66.37
51081;BME280;37130;55.670;37.596;2023-02-11T07:29:43;99368.00;;;1.43;65.91
51081;BME280;37130;55.670;37.596;2023-02-11T07:32:13;99426.00;;;1.63;66.13
51081;BME280;37130;55.670;37.596;2023-02-11T07:34:40;99434.28;;;1.31;66.06
51081;BME280;37130;55.670;37.596;2023-02-11T07:37:08;99401.16;;;0.62;66.35
51081;BME280;37130;55.670;37.596;2023-02-11T07:39:35;99322.03;;;-0.14;67.09
51081;BME280;37130;55.670;37.596;2023-02-11T07:42:03;99411.38;;;0.80;66.93
51081;BME280;37130;55.670;37.596;2023-02-11T07:44:30;99420.44;;;1.24;66.56
51081;BME280;37130;55.670;37.596;2023-02-11T07:46:59;99345.94;;;1.05;66.22
51081;BME280;37130;55.670;37.596;2023-02-11T07:49:27;99351.28;;;1.54;65.31
51081;BME280;37130;55.670;37.596;2023-02-11T07:51:55;99411.19;;;1.65;65.06
51081;BME280;37130;55.670;37.596;2023-02-11T07:54:23;99351.53;;;0.73;64.60
51081;BME280;37130;55.670;37.596;2023-02-11T07:56:50;99342.84;;;0.71;65.42
51081;BME280;37130;55.670;37.596;2023-02-11T07:59:17;99422.69;;;0.79;65.26
51081;BME280;37130;55.670;37.596;2023-02-11T08:01:45;99417.66;;;0.62;65.88
51081;BME280;37130;55.670;37.596;2023-02-11T08:04:12;99385.13;;;0.17;65.80
51081;BME280;37130;55.670;37.596;2023-02-11T08:06:41;99422.22;;;0.39;65.89
51081;BME280;37130;55.670;37.596;2023-02-11T08:09:13;99410.25;;;0.19;65.86
51081;BME280;37130;55.670;37.596;2023-02-11T08:11:42;99420.81;;;0.04;65.65
51081;BME280;37130;55.670;37.596;2023-02-11T08:14:11;99332.78;;;-0.56;65.72
51081;BME280;37130;55.670;37.596;2023-02-11T08:16:39;99399.94;;;0.09;65.68
51081;BME280;37130;55.670;37.596;2023-02-11T08:19:10;99396.41;;;0.14;65.48
51081;BME280;37130;55.670;37.596;2023-02-11T08:21:39;99316.97;;;-0.30;65.05
51081;BME280;37130;55.670;37.596;2023-02-11T08:24:07;99389.50;;;0.13;65.36
51081;BME280;37130;55.670;37.596;2023-02-11T08:26:35;99393.84;;;0.11;64.96
51081;BME280;37130;55.670;37.596;2023-02-11T08:29:09;99261.09;;;-0.89;65.18
51081;BME280;37130;55.670;37.596;2023-02-11T08:31:39;99393.19;;;-0.18;65.78
51081;BME280;37130;55.670;37.596;2023-02-11T08:34:08;99302.56;;;-0.71;65.62
51081;BME280;37130;55.670;37.596;2023-02-11T08:36:38;99374.97;;;-0.18;65.33
51081;BME280;37130;55.670;37.596;2023-02-11T08:39:16;99373.09;;;0.02;65.25
51081;BME280;37130;55.670;37.596;2023-02-11T08:41:48;99368.81;;;-0.05;65.43
51081;BME280;37130;55.670;37.596;2023-02-11T08:44:17;99369.63;;;0.02;64.94
51081;BME280;37130;55.670;37.596;2023-02-11T08:46:46;99373.16;;;-0.06;65.03
51081;BME280;37130;55.670;37.596;2023-02-11T08:49:14;99368.94;;;-0.20;65.07
51081;BME280;37130;55.670;37.596;2023-02-11T08:51:42;99365.56;;;-0.35;65.26
51081;BME280;37130;55.670;37.596;2023-02-11T08:54:10;99356.19;;;-0.56;65.42
51081;BME280;37130;55.670;37.596;2023-02-11T08:56:38;99358.94;;;-0.76;66.05
51081;BME280;37130;55.670;37.596;2023-02-11T08:59:06;99194.94;;;-1.81;65.88
51081;BME280;37130;55.670;37.596;2023-02-11T09:01:35;99345.03;;;-0.75;66.25
51081;BME280;37130;55.670;37.596;2023-02-11T09:04:03;99340.69;;;-0.73;66.32
51081;BME280;37130;55.670;37.596;2023-02-11T09:06:31;99331.13;;;-0.68;66.75
51081;BME280;37130;55.670;37.596;2023-02-11T09:08:59;99318.00;;;-0.51;66.40
51081;BME280;37130;55.670;37.596;2023-02-11T09:11:32;99288.69;;;-0.68;66.43
51081;BME280;37130;55.670;37.596;2023-02-11T09:14:02;99198.88;;;-1.18;65.78
51081;BME280;37130;55.670;37.596;2023-02-11T09:16:33;99184.25;;;-1.27;65.88
51081;BME280;37130;55.670;37.596;2023-02-11T09:19:04;99287.63;;;-0.50;66.08
51081;BME280;37130;55.670;37.596;2023-02-11T09:21:31;99288.44;;;-0.40;66.06
51081;BME280;37130;55.670;37.596;2023-02-11T09:23:59;99222.75;;;-0.64;66.43
51081;BME280;37130;55.670;37.596;2023-02-11T09:26:30;99274.41;;;-0.24;66.20
51081;BME280;37130;55.670;37.596;2023-02-11T09:28:58;99262.25;;;-0.22;66.11
51081;BME280;37130;55.670;37.596;2023-02-11T09:31:28;99176.88;;;-0.70;66.05
51081;BME280;37130;55.670;37.596;2023-02-11T09:33:58;99259.69;;;-0.27;66.25
51081;BME280;37130;55.670;37.596;2023-02-11T09:36:28;99258.00;;;-0.31;65.88
51081;BME280;37130;55.670;37.596;2023-02-11T09:39:00;99231.44;;;-0.65;66.07
51081;BME280;37130;55.670;37.596;2023-02-11T09:41:38;99241.06;;;-0.79;66.85
51081;BME280;37130;55.670;37.596;2023-02-11T09:44:17;99249.88;;;-0.99;67.01
51081;BME280;37130;55.670;37.596;2023-02-11T09:46:52;99243.91;;;-1.12;67.05
51081;BME280;37130;55.670;37.596;2023-02-11T09:49:25;99246.53;;;-1.18;67.52
51081;BME280;37130;55.670;37.596;2023-02-11T09:52:04;99235.28;;;-1.20;67.43
51081;BME280;37130;55.670;37.596;2023-02-11T09:54:54;99234.53;;;-1.42;67.78
51081;BME280;37130;55.670;37.596;2023-02-11T09:57:25;99227.66;;;-1.49;68.48
51081;BME280;37130;55.670;37.596;2023-02-11T09:59:56;99229.38;;;-1.48;69.05
51081;BME280;37130;55.670;37.596;2023-02-11T10:06:44;99222.53;;;-1.66;68.77
51081;BME280;37130;55.670;37.596;2023-02-11T10:20:22;99212.09;;;-1.55;68.85
51081;BME280;37130;55.670;37.596;2023-02-11T10:22:57;99210.38;;;-1.56;69.58
51081;BME280;37130;55.670;37.596;2023-02-11T10:25:29;99190.47;;;-1.54;69.66
51081;BME280;37130;55.670;37.596;2023-02-11T10:28:19;99185.31;;;-1.57;69.92
51081;BME280;37130;55.670;37.596;2023-02-11T10:31:09;99180.03;;;-1.48;70.38
51081;BME280;37130;55.670;37.596;2023-02-11T10:36:21;99099.03;;;-2.10;70.04
51081;BME280;37130;55.670;37.596;2023-02-11T10:38:50;99155.78;;;-1.44;70.41
51081;BME280;37130;55.670;37.596;2023-02-11T10:41:27;99144.50;;;-1.38;69.91
51081;BME280;37130;55.670;37.596;2023-02-11T10:43:58;99154.75;;;-1.21;69.67
51081;BME280;37130;55.670;37.596;2023-02-11T10:46:32;99139.16;;;-1.20;69.09
51081;BME280;37130;55.670;37.596;2023-02-11T10:49:02;99054.72;;;-1.70;69.26
51081;BME280;37130;55.670;37.596;2023-02-11T10:51:31;99117.53;;;-1.20;69.62
51081;BME280;37130;55.670;37.596;2023-02-11T10:56:34;99122.47;;;-0.91;69.14
51081;BME280;37130;55.670;37.596;2023-02-11T11:02:20;99096.41;;;-0.86;69.12
51081;BME280;37130;55.670;37.596;2023-02-11T11:04:55;99095.69;;;-0.99;69.13
51081;BME280;37130;55.670;37.596;2023-02-11T11:07:31;99090.44;;;-0.93;69.09
51081;BME280;37130;55.670;37.596;2023-02-11T11:10:06;99080.03;;;-0.93;68.83
51081;BME280;37130;55.670;37.596;2023-02-11T11:12:36;99093.69;;;-0.73;69.12
51081;BME280;37130;55.670;37.596;2023-02-11T11:17:37;99091.84;;;-0.61;68.31
51081;BME280;37130;55.670;37.596;2023-02-11T11:23:14;99070.41;;;-0.83;68.67
51081;BME280;37130;55.670;37.596;2023-02-11T11:25:45;99067.78;;;-0.80;68.62
51081;BME280;37130;55.670;37.596;2023-02-11T11:28:27;98865.50;;;-1.99;68.36
51081;BME280;37130;55.670;37.596;2023-02-11T11:30:58;99051.47;;;-0.96;67.87
51081;BME280;37130;55.670;37.596;2023-02-11T11:33:28;99030.69;;;-0.96;68.34
51081;BME280;37130;55.670;37.596;2023-02-11T11:36:05;99045.44;;;-0.97;67.43
51081;BME280;37130;55.670;37.596;2023-02-11T11:38:47;99028.06;;;-0.93;67.87
51081;BME280;37130;55.670;37.596;2023-02-11T11:41:26;99027.28;;;-1.01;68.00
51081;BME280;37130;55.670;37.596;2023-02-11T11:43:57;99019.53;;;-1.07;68.01
51081;BME280;37130;55.670;37.596;2023-02-11T11:46:29;99013.44;;;-1.02;67.50
51081;BME280;37130;55.670;37.596;2023-02-11T11:51:59;98992.94;;;-1.34;67.72
51081;BME280;37130;55.670;37.596;2023-02-11T11:54:32;98898.41;;;-2.07;68.25
51081;BME280;37130;55.670;37.596;2023-02-11T11:57:11;99004.22;;;-1.34;68.47
51081;BME280;37130;55.670;37.596;2023-02-11T11:59:41;98996.56;;;-1.49;68.43
51081;BME280;37130;55.670;37.596;2023-02-11T12:05:10;98986.28;;;-1.63;68.78
51081;BME280;37130;55.670;37.596;2023-02-11T12:10:49;98977.66;;;-1.65;69.02
51081;BME280;37130;55.670;37.596;2023-02-11T12:15:56;98955.13;;;-1.61;67.94
51081;BME280;37130;55.670;37.596;2023-02-11T12:19:13;98972.47;;;-1.66;68.48
51081;BME280;37130;55.670;37.596;2023-02-11T12:26:52;98956.84;;;-1.63;68.03
51081;BME280;37130;55.670;37.596;2023-02-11T12:32:14;98951.59;;;-1.54;67.64
51081;BME280;37130;55.670;37.596;2023-02-11T12:40:32;98942.13;;;-1.60;68.61
51081;BME280;37130;55.670;37.596;2023-02-11T12:46:07;98924.84;;;-1.64;67.83
51081;BME280;37130;55.670;37.596;2023-02-11T12:52:05;98914.47;;;-1.64;68.12
51081;BME280;37130;55.670;37.596;2023-02-11T12:54:43;98912.84;;;-1.74;68.19
51081;BME280;37130;55.670;37.596;2023-02-11T12:57:18;98902.38;;;-1.68;68.48
51081;BME280;37130;55.670;37.596;2023-02-11T13:00:07;98898.84;;;-1.61;68.21
51081;BME280;37130;55.670;37.596;2023-02-11T13:03:02;98878.94;;;-1.60;68.85
51081;BME280;37130;55.670;37.596;2023-02-11T13:05:54;98872.97;;;-1.67;68.35
51081;BME280;37130;55.670;37.596;2023-02-11T13:08:51;98869.66;;;-1.83;68.84
51081;BME280;37130;55.670;37.596;2023-02-11T13:11:26;98855.88;;;-1.88;68.33
51081;BME280;37130;55.670;37.596;2023-02-11T13:14:29;98852.50;;;-1.96;69.22
51081;BME280;37130;55.670;37.596;2023-02-11T13:16:59;98811.88;;;-1.99;69.09
51081;BME280;37130;55.670;37.596;2023-02-11T13:19:38;98754.38;;;-2.44;69.17
51081;BME280;37130;55.670;37.596;2023-02-11T13:24:54;98817.09;;;-2.02;69.61
51081;BME280;37130;55.670;37.596;2023-02-11T13:35:29;98801.78;;;-2.29;72.08
51081;BME280;37130;55.670;37.596;2023-02-11T13:37:58;98790.41;;;-2.14;73.32
51081;BME280;37130;55.670;37.596;2023-02-11T13:40:33;98741.47;;;-2.48;74.26
51081;BME280;37130;55.670;37.596;2023-02-11T13:43:04;98780.13;;;-2.25;75.13
51081;BME280;37130;55.670;37.596;2023-02-11T13:45:47;98772.31;;;-2.24;75.73
51081;BME280;37130;55.670;37.596;2023-02-11T13:48:27;98761.16;;;-2.33;76.37
51081;BME280;37130;55.670;37.596;2023-02-11T13:51:00;98731.88;;;-2.42;77.39
51081;BME280;37130;55.670;37.596;2023-02-11T13:53:29;98731.06;;;-2.47;78.76
51081;BME280;37130;55.670;37.596;2023-02-11T13:56:34;98750.16;;;-2.54;79.21
51081;BME280;37130;55.670;37.596;2023-02-11T13:59:05;98735.47;;;-2.58;80.60
51081;BME280;37130;55.670;37.596;2023-02-11T14:01:41;98738.97;;;-2.60;81.92
51081;BME280;37130;55.670;37.596;2023-02-11T14:11:05;98696.63;;;-2.61;83.08
51081;BME280;37130;55.670;37.596;2023-02-11T14:16:16;98689.81;;;-2.71;84.87
51081;BME280;37130;55.670;37.596;2023-02-11T14:19:03;98670.78;;;-2.69;85.57
51081;BME280;37130;55.670;37.596;2023-02-11T14:21:41;98667.31;;;-2.68;86.46
51081;BME280;37130;55.670;37.596;2023-02-11T14:26:58;98581.44;;;-3.17;87.11
51081;BME280;37130;55.670;37.596;2023-02-11T14:32:08;98640.59;;;-2.73;88.06
51081;BME280;37130;55.670;37.596;2023-02-11T14:35:15;98640.66;;;-2.80;88.55
51081;BME280;37130;55.670;37.596;2023-02-11T14:40:57;98626.00;;;-2.80;89.16
51081;BME280;37130;55.670;37.596;2023-02-11T14:43:37;98516.94;;;-3.43;89.83
51081;BME280;37130;55.670;37.596;2023-02-11T14:46:07;98535.72;;;-3.18;90.03
51081;BME280;37130;55.670;37.596;2023-02-11T14:48:43;98600.00;;;-2.74;89.96
51081;BME280;37130;55.670;37.596;2023-02-11T14:51:12;98595.66;;;-2.69;90.49
51081;BME280;37130;55.670;37.596;2023-02-11T14:53:49;98588.72;;;-2.68;89.99
51081;BME280;37130;55.670;37.596;2023-02-11T14:58:47;98460.81;;;-3.38;90.50
51081;BME280;37130;55.670;37.596;2023-02-11T15:03:55;98564.44;;;-2.59;91.27
51081;BME280;37130;55.670;37.596;2023-02-11T15:06:29;98567.03;;;-2.59;91.06
51081;BME280;37130;55.670;37.596;2023-02-11T15:09:19;98551.53;;;-2.64;91.92
51081;BME280;37130;55.670;37.596;2023-02-11T15:11:51;98542.03;;;-2.63;92.68
51081;BME280;37130;55.670;37.596;2023-02-11T15:14:27;98505.88;;;-2.74;92.59
51081;BME280;37130;55.670;37.596;2023-02-11T15:16:58;98529.06;;;-2.62;93.54
51081;BME280;37130;55.670;37.596;2023-02-11T15:19:37;98536.81;;;-2.60;93.78
51081;BME280;37130;55.670;37.596;2023-02-11T15:22:27;98521.31;;;-2.65;94.70
51081;BME280;37130;55.670;37.596;2023-02-11T15:27:47;98519.56;;;-2.63;94.63
51081;BME280;37130;55.670;37.596;2023-02-11T15:32:53;98509.16;;;-2.60;95.05
51081;BME280;37130;55.670;37.596;2023-02-11T15:35:28;98428.56;;;-3.10;94.97